Time;durP1;ratioP1;P1;durP2;ratioP2;P2;SDS_P1;SDS_P2;PMS_P1;PMS_P2;Temp;Humidity;BMP_temperature;BMP_pressure;BME280_temperature;BME280_humidity;BME280_pressure;Samples;Min_cycle;Max_cycle;Signal;HPM_P1;HPM_P2
2023/11/08 00:02:14;;;;;;;9.15;2.22;;;7.50;99.90;;;;;;5013221;28;20133;-63
2023/11/08 00:04:40;;;;;;;11.40;2.10;;;7.60;99.90;;;;;;5015679;28;20430;-63
2023/11/08 00:07:09;;;;;;;7.15;2.17;;;7.50;99.90;;;;;;5015660;28;20476;-64
2023/11/08 00:09:36;;;;;;;12.65;2.20;;;7.50;99.90;;;;;;5015810;28;20038;-64
2023/11/08 00:12:03;;;;;;;9.02;2.20;;;7.60;99.90;;;;;;5015788;28;20046;-63
2023/11/08 00:14:30;;;;;;;10.02;2.50;;;7.50;99.90;;;;;;5015625;28;20046;-63
2023/11/08 00:16:58;;;;;;;11.13;2.17;;;7.50;99.90;;;;;;5015597;28;20096;-64
2023/11/08 00:19:25;;;;;;;7.57;2.08;;;7.50;99.90;;;;;;5015440;28;20038;-64
2023/11/08 00:21:52;;;;;;;14.00;2.17;;;7.60;99.90;;;;;;5015494;28;20391;-64
2023/11/08 00:24:18;;;;;;;10.55;2.30;;;7.60;99.90;;;;;;5015474;28;20049;-60
2023/11/08 00:26:45;;;;;;;9.55;2.00;;;7.50;99.90;;;;;;5015393;28;20042;-60
2023/11/08 00:29:12;;;;;;;8.65;2.10;;;7.50;99.90;;;;;;5015161;28;20125;-60
2023/11/08 00:31:39;;;;;;;11.43;2.13;;;7.50;99.90;;;;;;5015112;28;20042;-60
2023/11/08 00:34:07;;;;;;;10.88;2.70;;;7.50;99.90;;;;;;5013752;28;20442;-60
2023/11/08 00:36:33;;;;;;;8.07;1.85;;;7.60;99.90;;;;;;5014040;28;20045;-60
2023/11/08 00:39:00;;;;;;;7.53;2.10;;;7.60;99.90;;;;;;5013932;28;20554;-60
2023/11/08 00:41:27;;;;;;;9.85;1.95;;;7.60;99.90;;;;;;5014871;28;20100;-60
2023/11/08 00:43:56;;;;;;;11.20;3.40;;;7.60;99.90;;;;;;5015270;28;20038;-60
2023/11/08 00:46:23;;;;;;;9.30;2.05;;;7.70;99.90;;;;;;5015126;28;20073;-60
2023/11/08 00:48:50;;;;;;;9.45;1.90;;;7.70;99.90;;;;;;5013824;28;20555;-60
2023/11/08 00:51:19;;;;;;;6.85;1.95;;;7.70;99.90;;;;;;5014979;28;20046;-60
2023/11/08 00:53:47;;;;;;;7.93;2.03;;;7.70;99.90;;;;;;5013695;28;20515;-58
2023/11/08 00:56:14;;;;;;;8.85;1.48;;;7.70;99.90;;;;;;5013339;28;20049;-60
2023/11/08 00:58:40;;;;;;;9.77;1.95;;;7.70;99.90;;;;;;5014488;28;20046;-60
2023/11/08 01:01:07;;;;;;;8.43;2.28;;;7.70;99.90;;;;;;5014565;28;20053;-60
2023/11/08 01:03:34;;;;;;;7.10;1.48;;;7.80;99.90;;;;;;5015020;28;20056;-59
2023/11/08 01:06:01;;;;;;;7.00;1.55;;;7.70;99.90;;;;;;5013797;28;20495;-59
2023/11/08 01:08:27;;;;;;;9.52;2.10;;;7.80;99.90;;;;;;5013237;28;20542;-62
2023/11/08 01:10:55;;;;;;;8.35;1.92;;;7.80;99.90;;;;;;5014583;28;20041;-63
2023/11/08 01:13:21;;;;;;;8.45;2.35;;;7.80;99.90;;;;;;5013045;28;20136;-59
2023/11/08 01:15:48;;;;;;;6.15;1.52;;;7.80;99.90;;;;;;5012670;28;20050;-59
2023/11/08 01:18:16;;;;;;;7.00;1.80;;;7.80;99.90;;;;;;5014284;28;20392;-59
2023/11/08 01:20:43;;;;;;;4.00;1.65;;;7.80;99.90;;;;;;5014742;28;20096;-59
2023/11/08 01:23:11;;;;;;;8.30;1.63;;;7.80;99.90;;;;;;5013222;28;20136;-63
2023/11/08 01:25:38;;;;;;;4.80;1.60;;;7.80;99.90;;;;;;5014110;28;20140;-64
2023/11/08 01:28:05;;;;;;;8.15;1.88;;;7.80;99.90;;;;;;5013115;28;20053;-64
2023/11/08 01:30:33;;;;;;;6.45;1.73;;;7.80;99.90;;;;;;5014375;28;20176;-65
2023/11/08 01:32:59;;;;;;;7.82;1.80;;;7.80;99.90;;;;;;5013165;28;20399;-64
2023/11/08 01:35:26;;;;;;;4.28;1.60;;;7.80;99.90;;;;;;5012783;28;20087;-64
2023/11/08 01:37:53;;;;;;;9.00;1.70;;;7.80;99.90;;;;;;5012580;28;20056;-64
2023/11/08 01:40:20;;;;;;;6.95;1.85;;;7.70;99.90;;;;;;5013369;28;20125;-62
2023/11/08 01:42:47;;;;;;;6.65;1.52;;;7.70;99.90;;;;;;5013825;28;20045;-64
2023/11/08 01:45:14;;;;;;;4.35;1.90;;;7.70;99.90;;;;;;5013478;28;20037;-62
2023/11/08 01:47:41;;;;;;;6.90;1.80;;;7.70;99.90;;;;;;5013288;28;20077;-62
2023/11/08 01:50:09;;;;;;;7.32;1.77;;;7.60;99.90;;;;;;5013772;28;20062;-62
2023/11/08 01:52:36;;;;;;;10.55;2.97;;;7.60;99.90;;;;;;5013625;28;20041;-64
2023/11/08 01:55:02;;;;;;;7.32;1.80;;;7.50;99.90;;;;;;5012275;28;20487;-62
2023/11/08 01:57:29;;;;;;;9.65;2.05;;;7.50;99.90;;;;;;5013422;28;20132;-63
2023/11/08 02:00:00;;;;;;;9.18;1.60;;;7.50;99.90;;;;;;5012081;28;20410;-63
2023/11/08 02:02:26;;;;;;;8.18;1.80;;;7.60;99.90;;;;;;5013466;28;20461;-64
2023/11/08 02:04:53;;;;;;;9.65;2.40;;;7.50;99.90;;;;;;5012506;28;20502;-63
2023/11/08 02:07:21;;;;;;;4.43;1.67;;;7.60;99.90;;;;;;5013577;28;20100;-64
2023/11/08 02:09:49;;;;;;;9.68;2.08;;;7.60;99.90;;;;;;5012436;28;20073;-64
2023/11/08 02:12:16;;;;;;;7.10;1.48;;;7.60;99.90;;;;;;5012792;28;20037;-63
2023/11/08 02:14:42;;;;;;;7.82;2.00;;;7.60;99.90;;;;;;5012379;28;20121;-64
2023/11/08 02:17:09;;;;;;;7.32;1.70;;;7.70;99.90;;;;;;5013403;28;20077;-64
2023/11/08 02:19:36;;;;;;;9.50;2.22;;;7.70;99.90;;;;;;5013546;28;20053;-65
2023/11/08 02:22:03;;;;;;;7.25;1.48;;;7.70;99.90;;;;;;5013454;28;20042;-64
2023/11/08 02:24:30;;;;;;;9.23;1.70;;;7.70;99.90;;;;;;5013312;28;20049;-64
2023/11/08 02:26:56;;;;;;;5.25;1.60;;;7.70;99.90;;;;;;5015993;28;20038;-65
2023/11/08 02:29:23;;;;;;;10.05;1.50;;;7.70;99.90;;;;;;5013654;28;20185;-64
2023/11/08 02:31:51;;;;;;;9.32;1.77;;;7.70;99.90;;;;;;4997758;28;20050;-63
2023/11/08 02:34:18;;;;;;;8.93;1.70;;;7.70;99.90;;;;;;4997593;28;20491;-64
2023/11/08 02:36:45;;;;;;;6.38;1.70;;;7.70;99.90;;;;;;5012579;28;20495;-64
2023/11/08 02:39:12;;;;;;;10.13;1.73;;;7.70;99.90;;;;;;5036937;28;20060;-64
2023/11/08 02:41:39;;;;;;;6.03;1.60;;;7.70;99.90;;;;;;5019148;28;20064;-59
2023/11/08 02:44:08;;;;;;;7.45;1.85;;;7.80;99.90;;;;;;5019171;28;20450;-60
2023/11/08 02:46:35;;;;;;;10.10;1.70;;;7.80;99.90;;;;;;5036989;28;20096;-59
2023/11/08 02:49:03;;;;;;;9.75;1.90;;;7.80;99.90;;;;;;5019027;28;20068;-60
2023/11/08 02:51:30;;;;;;;6.05;1.60;;;7.80;99.90;;;;;;5019092;28;20048;-60
2023/11/08 02:53:58;;;;;;;8.93;1.42;;;7.80;99.90;;;;;;5018860;28;20037;-60
2023/11/08 02:56:25;;;;;;;9.45;1.88;;;7.80;99.90;;;;;;5036830;28;20506;-60
2023/11/08 02:58:56;;;;;;;9.38;1.67;;;7.90;99.90;;;;;;5036579;28;20045;-59
2023/11/08 03:01:23;;;;;;;6.05;1.60;;;7.90;99.90;;;;;;5036942;28;20092;-60
2023/11/08 03:03:50;;;;;;;6.93;1.70;;;7.90;99.90;;;;;;5019211;28;20057;-60
2023/11/08 03:06:19;;;;;;;8.75;1.85;;;7.90;99.90;;;;;;5019074;28;20050;-60
2023/11/08 03:08:46;;;;;;;9.20;2.13;;;7.90;99.90;;;;;;5037476;28;20037;-60
2023/11/08 03:11:13;;;;;;;7.28;1.77;;;7.90;99.90;;;;;;5037444;28;20437;-60
2023/11/08 03:13:40;;;;;;;11.07;1.85;;;8.00;99.90;;;;;;5037029;28;20046;-60
2023/11/08 03:16:07;;;;;;;7.68;1.55;;;8.00;99.90;;;;;;5036677;28;20072;-61
2023/11/08 03:18:33;;;;;;;7.53;2.10;;;7.90;99.90;;;;;;5036411;28;20478;-59
2023/11/08 03:21:01;;;;;;;10.52;2.58;;;7.90;99.90;;;;;;5018571;28;20425;-60
2023/11/08 03:23:28;;;;;;;9.63;2.10;;;7.90;99.90;;;;;;5018355;28;20129;-60
2023/11/08 03:25:55;;;;;;;9.73;2.13;;;7.90;99.90;;;;;;5036584;28;20049;-59
2023/11/08 03:28:22;;;;;;;8.23;1.80;;;7.90;99.90;;;;;;5036490;28;20042;-59
2023/11/08 03:30:49;;;;;;;14.95;2.10;;;8.00;99.90;;;;;;5036136;28;20044;-60
2023/11/08 03:33:16;;;;;;;7.68;2.10;;;8.00;99.90;;;;;;5036382;28;20076;-60
2023/11/08 03:35:43;;;;;;;10.05;2.22;;;8.00;99.90;;;;;;5036025;28;20065;-60
2023/11/08 03:38:10;;;;;;;7.95;1.90;;;8.00;99.90;;;;;;5035938;28;20095;-59
2023/11/08 03:40:37;;;;;;;9.32;2.13;;;8.00;99.90;;;;;;5035707;28;20136;-60
2023/11/08 03:43:04;;;;;;;6.65;2.10;;;8.00;99.90;;;;;;5018506;28;20045;-60
2023/11/08 03:45:30;;;;;;;12.52;2.55;;;8.00;99.90;;;;;;5035682;28;20068;-60
2023/11/08 03:47:57;;;;;;;12.63;1.67;;;8.10;99.90;;;;;;5018101;28;20128;-59
2023/11/08 03:50:24;;;;;;;11.02;1.80;;;8.10;99.90;;;;;;5035966;28;20033;-60
2023/11/08 03:52:51;;;;;;;7.72;2.10;;;8.10;99.90;;;;;;5035950;28;20421;-64
2023/11/08 03:55:18;;;;;;;10.02;1.90;;;8.20;99.90;;;;;;5035629;28;20116;-64
2023/11/08 03:57:44;;;;;;;8.98;2.17;;;8.20;99.90;;;;;;5035726;28;20544;-63
2023/11/08 04:00:11;;;;;;;9.93;2.00;;;8.20;99.90;;;;;;5035692;28;20529;-64
2023/11/08 04:02:38;;;;;;;5.82;1.83;;;8.20;99.90;;;;;;5035628;28;20041;-60
2023/11/08 04:05:05;;;;;;;9.32;1.42;;;8.20;99.90;;;;;;5035531;28;20426;-59
2023/11/08 04:07:32;;;;;;;9.40;2.05;;;8.10;99.90;;;;;;5035642;28;20053;-60
2023/11/08 04:09:59;;;;;;;4.65;1.55;;;8.10;99.90;;;;;;5035487;28;20494;-60
2023/11/08 04:12:26;;;;;;;10.32;1.80;;;8.20;99.90;;;;;;5035174;28;20113;-60
2023/11/08 04:14:53;;;;;;;6.93;1.80;;;8.20;99.90;;;;;;5035366;28;20049;-60
2023/11/08 04:17:20;;;;;;;9.30;1.70;;;8.20;99.90;;;;;;5035172;28;20045;-59
2023/11/08 04:19:47;;;;;;;9.57;2.00;;;8.10;99.90;;;;;;5034959;28;20046;-59
2023/11/08 04:22:17;;;;;;;9.50;1.77;;;8.20;99.90;;;;;;5035178;28;20037;-59
2023/11/08 04:24:44;;;;;;;11.40;2.20;;;8.20;99.90;;;;;;5035183;28;20076;-60
2023/11/08 04:27:11;;;;;;;10.15;2.15;;;8.20;99.90;;;;;;5035078;28;20046;-60
2023/11/08 04:29:38;;;;;;;12.18;2.33;;;8.30;99.90;;;;;;5035006;28;20396;-59
2023/11/08 04:32:05;;;;;;;5.40;1.58;;;8.40;99.90;;;;;;5035432;28;20037;-64
2023/11/08 04:34:32;;;;;;;9.70;2.00;;;8.40;99.90;;;;;;5035466;28;20038;-63
2023/11/08 04:36:59;;;;;;;12.38;1.83;;;8.50;99.90;;;;;;5034420;28;20124;-64
2023/11/08 04:39:25;;;;;;;10.77;1.65;;;8.60;99.90;;;;;;5034724;28;20165;-60
2023/11/08 04:41:52;;;;;;;11.45;2.20;;;8.60;99.90;;;;;;5034306;28;20058;-60
2023/11/08 04:44:19;;;;;;;10.05;2.20;;;8.70;99.90;;;;;;5034833;28;20049;-60
2023/11/08 04:46:46;;;;;;;10.68;2.63;;;8.70;99.90;;;;;;5034466;28;20044;-60
2023/11/08 04:49:13;;;;;;;12.90;2.47;;;8.70;99.90;;;;;;5034119;28;20041;-60
2023/11/08 04:51:41;;;;;;;8.48;1.98;;;8.80;99.90;;;;;;5034682;28;20045;-60
2023/11/08 04:54:08;;;;;;;10.63;2.70;;;8.80;99.90;;;;;;5034440;28;20049;-59
2023/11/08 04:56:35;;;;;;;10.70;2.10;;;8.80;99.90;;;;;;5034319;28;20092;-59
2023/11/08 04:59:02;;;;;;;8.27;2.25;;;8.80;99.90;;;;;;5034465;28;20441;-59
2023/11/08 05:01:29;;;;;;;6.82;1.90;;;8.80;99.90;;;;;;5034699;28;20471;-59
2023/11/08 05:03:56;;;;;;;7.80;1.55;;;8.80;99.90;;;;;;5034281;28;20382;-59
2023/11/08 05:06:23;;;;;;;10.60;1.85;;;8.80;99.90;;;;;;5034192;28;20041;-59
2023/11/08 05:08:50;;;;;;;12.30;2.00;;;8.80;99.90;;;;;;5034520;28;20493;-59
2023/11/08 05:11:17;;;;;;;8.23;1.67;;;8.90;99.90;;;;;;5034134;28;20433;-62
2023/11/08 05:13:45;;;;;;;12.13;2.38;;;8.90;99.90;;;;;;5034243;28;20049;-62
2023/11/08 05:16:14;;;;;;;11.90;1.98;;;8.90;99.90;;;;;;5034108;28;20136;-63
2023/11/08 05:18:41;;;;;;;8.88;2.30;;;8.90;99.90;;;;;;5034062;28;20104;-63
2023/11/08 05:21:08;;;;;;;9.45;2.63;;;8.90;99.90;;;;;;5033980;28;20045;-64
2023/11/08 05:23:35;;;;;;;12.65;2.90;;;9.00;99.90;;;;;;5034409;28;20438;-64
2023/11/08 05:26:01;;;;;;;12.00;2.45;;;9.00;99.90;;;;;;5035443;28;20525;-64
2023/11/08 05:28:31;;;;;;;12.52;2.50;;;9.00;99.90;;;;;;5034750;28;20375;-65
2023/11/08 05:30:57;;;;;;;10.85;2.17;;;9.10;99.90;;;;;;5034125;28;20056;-65
2023/11/08 05:33:24;;;;;;;9.05;2.08;;;9.10;99.90;;;;;;5033652;28;20051;-59
2023/11/08 05:35:53;;;;;;;9.85;2.10;;;9.10;99.90;;;;;;5033847;28;20034;-59
2023/11/08 05:38:21;;;;;;;10.35;1.90;;;9.10;99.90;;;;;;5033705;28;20422;-59
2023/11/08 05:40:48;;;;;;;11.70;1.70;;;9.20;99.90;;;;;;5016425;28;20140;-59
2023/11/08 05:43:15;;;;;;;9.20;2.47;;;9.20;99.90;;;;;;5034028;28;20099;-62
2023/11/08 05:45:42;;;;;;;10.25;1.83;;;9.20;99.90;;;;;;5033602;28;20069;-63
2023/11/08 05:48:09;;;;;;;9.10;2.13;;;9.20;99.90;;;;;;5015906;28;20486;-64
2023/11/08 05:50:35;;;;;;;10.80;1.98;;;9.30;99.90;;;;;;5033427;28;20045;-59
2023/11/08 05:53:03;;;;;;;11.98;2.60;;;9.30;99.90;;;;;;5033786;28;20103;-59
2023/11/08 05:55:30;;;;;;;8.35;2.10;;;9.30;99.90;;;;;;5015954;28;20060;-62
2023/11/08 05:57:57;;;;;;;9.50;2.58;;;9.30;99.90;;;;;;5033596;28;20445;-63
2023/11/08 06:00:25;;;;;;;9.70;1.88;;;9.30;99.90;;;;;;5033397;28;20084;-59
2023/11/08 06:02:52;;;;;;;9.57;1.75;;;9.40;99.90;;;;;;5033025;28;20042;-64
2023/11/08 06:05:19;;;;;;;11.70;2.10;;;9.40;99.90;;;;;;5033694;28;20120;-63
2023/11/08 06:07:46;;;;;;;12.48;2.03;;;9.40;99.90;;;;;;5033010;28;20128;-64
2023/11/08 06:10:13;;;;;;;10.45;1.90;;;9.40;99.90;;;;;;5033278;28;20120;-63
2023/11/08 06:12:40;;;;;;;13.07;2.20;;;9.50;99.90;;;;;;5033462;28;20087;-64
2023/11/08 06:15:07;;;;;;;18.52;2.55;;;9.50;99.90;;;;;;5015760;28;20042;-64
2023/11/08 06:17:34;;;;;;;15.35;2.35;;;9.50;99.90;;;;;;5033252;28;20089;-63
2023/11/08 06:20:01;;;;;;;13.45;2.67;;;9.50;99.90;;;;;;5033241;28;20095;-64
2023/11/08 06:22:29;;;;;;;14.82;2.33;;;9.50;99.90;;;;;;5033038;28;20044;-64
2023/11/08 06:24:56;;;;;;;13.77;2.15;;;9.50;99.90;;;;;;5032955;28;20094;-64
2023/11/08 06:27:22;;;;;;;12.05;2.40;;;9.40;99.90;;;;;;5015428;28;20037;-65
2023/11/08 06:29:49;;;;;;;15.32;2.22;;;9.40;99.90;;;;;;5033123;28;20049;-64
2023/11/08 06:32:20;;;;;;;11.88;2.50;;;9.50;99.90;;;;;;5033191;28;20038;-65
2023/11/08 06:34:46;;;;;;;12.68;2.10;;;9.50;99.90;;;;;;5033056;28;20041;-65
2023/11/08 06:37:13;;;;;;;12.38;2.28;;;9.50;99.90;;;;;;5015075;28;20144;-65
2023/11/08 06:39:40;;;;;;;10.20;2.17;;;9.40;99.90;;;;;;5015943;28;20119;-60
2023/11/08 06:42:07;;;;;;;13.23;2.20;;;9.40;99.90;;;;;;5015225;28;20490;-60
2023/11/08 06:44:34;;;;;;;14.07;2.55;;;9.50;99.90;;;;;;5033216;28;20037;-60
2023/11/08 06:47:00;;;;;;;13.05;2.20;;;9.50;99.90;;;;;;5032916;28;20088;-59
2023/11/08 06:49:27;;;;;;;12.38;2.40;;;9.50;99.90;;;;;;5015168;28;20127;-59
2023/11/08 06:51:54;;;;;;;14.10;2.60;;;9.50;99.90;;;;;;5033129;28;20164;-59
2023/11/08 06:54:21;;;;;;;13.77;2.47;;;9.60;99.90;;;;;;5033157;28;20069;-59
2023/11/08 06:56:48;;;;;;;10.18;2.28;;;9.60;99.90;;;;;;5033234;28;20041;-59
2023/11/08 06:59:14;;;;;;;12.07;2.33;;;9.70;99.90;;;;;;5032511;28;20048;-59
2023/11/08 07:01:41;;;;;;;10.48;1.92;;;9.70;99.90;;;;;;5032737;28;20072;-59
2023/11/08 07:04:08;;;;;;;12.10;2.10;;;9.70;99.90;;;;;;5032599;28;20151;-59
2023/11/08 07:06:35;;;;;;;20.48;3.30;;;9.80;99.90;;;;;;5033071;28;20041;-58
2023/11/08 07:09:02;;;;;;;14.88;2.63;;;9.80;99.90;;;;;;5032787;28;20125;-58
2023/11/08 07:11:29;;;;;;;13.50;2.50;;;9.90;99.90;;;;;;5032476;28;20096;-59
2023/11/08 07:13:56;;;;;;;11.70;2.60;;;9.90;99.90;;;;;;5036389;28;20047;-59
2023/11/08 07:16:22;;;;;;;14.40;2.33;;;9.90;99.90;;;;;;5036405;28;20430;-58
2023/11/08 07:18:49;;;;;;;11.80;2.42;;;9.90;99.90;;;;;;5036376;28;20042;-58
2023/11/08 07:21:16;;;;;;;13.30;2.50;;;10.00;99.90;;;;;;5035994;28;20120;-58
2023/11/08 07:23:44;;;;;;;14.00;2.85;;;10.10;99.90;;;;;;5036214;28;20048;-58
2023/11/08 07:26:13;;;;;;;12.15;2.83;;;10.10;99.90;;;;;;5036233;28;20096;-58
2023/11/08 07:28:41;;;;;;;14.77;2.60;;;10.10;99.90;;;;;;5036175;28;20040;-59
2023/11/08 07:31:08;;;;;;;19.20;2.92;;;10.10;99.90;;;;;;5036296;28;20103;-58
2023/11/08 07:33:35;;;;;;;12.68;2.20;;;10.10;99.90;;;;;;5036139;28;20037;-58
2023/11/08 07:36:02;;;;;;;20.55;3.08;;;10.20;99.90;;;;;;5018685;28;20485;-57
2023/11/08 07:38:29;;;;;;;11.55;2.25;;;10.20;99.90;;;;;;5036826;28;20065;-58
2023/11/08 07:40:58;;;;;;;13.88;2.25;;;10.20;99.90;;;;;;5034067;28;20097;-59
2023/11/08 07:43:26;;;;;;;16.85;2.95;;;10.20;99.90;;;;;;5036238;28;20041;-59
2023/11/08 07:45:53;;;;;;;14.27;2.53;;;10.20;99.90;;;;;;5035495;28;20046;-59
2023/11/08 07:48:19;;;;;;;7.93;1.98;;;10.30;99.90;;;;;;5035768;28;20045;-59
2023/11/08 07:50:46;;;;;;;15.82;3.13;;;10.30;99.90;;;;;;5035899;28;20068;-59
2023/11/08 07:53:13;;;;;;;11.88;2.03;;;10.30;99.90;;;;;;5035844;28;20124;-58
2023/11/08 07:55:40;;;;;;;10.68;1.90;;;10.30;99.90;;;;;;5035710;28;20033;-59
2023/11/08 07:58:07;;;;;;;10.30;2.00;;;10.30;99.90;;;;;;5035176;28;20399;-59
2023/11/08 08:00:34;;;;;;;11.30;2.28;;;10.40;99.90;;;;;;5035414;28;20103;-59
2023/11/08 08:03:01;;;;;;;14.88;2.35;;;10.40;99.90;;;;;;5035268;28;20058;-58
2023/11/08 08:05:28;;;;;;;15.80;2.63;;;10.40;99.90;;;;;;5035293;28;20041;-58
2023/11/08 08:07:54;;;;;;;12.40;2.38;;;10.40;99.90;;;;;;5034981;28;20453;-58
2023/11/08 08:10:25;;;;;;;10.20;2.15;;;10.40;99.90;;;;;;5035246;28;20033;-58
2023/11/08 08:12:52;;;;;;;10.68;2.00;;;10.40;99.90;;;;;;5035427;28;20037;-59
2023/11/08 08:15:19;;;;;;;15.18;2.33;;;10.50;99.90;;;;;;5035460;28;20044;-59
2023/11/08 08:17:45;;;;;;;10.43;2.38;;;10.50;99.90;;;;;;5034989;28;20049;-59
2023/11/08 08:20:13;;;;;;;10.55;2.25;;;10.50;99.90;;;;;;5035091;28;20041;-60
2023/11/08 08:22:40;;;;;;;7.07;1.50;;;10.60;99.90;;;;;;5034751;28;20391;-59
2023/11/08 08:25:07;;;;;;;13.10;2.30;;;10.60;99.90;;;;;;5034166;28;20148;-59
2023/11/08 08:27:34;;;;;;;10.70;2.28;;;10.60;99.90;;;;;;5034774;28;20099;-59
2023/11/08 08:30:01;;;;;;;12.20;2.05;;;10.60;99.90;;;;;;5034782;28;20112;-65
2023/11/08 08:32:28;;;;;;;9.35;2.20;;;10.60;99.90;;;;;;5034807;28;20072;-65
2023/11/08 08:34:54;;;;;;;9.25;2.58;;;10.70;99.90;;;;;;5035221;28;20034;-65
2023/11/08 08:37:21;;;;;;;8.82;1.50;;;10.70;99.90;;;;;;5034508;28;20129;-65
2023/11/08 08:39:48;;;;;;;8.35;1.65;;;10.80;99.90;;;;;;5034660;28;20037;-65
2023/11/08 08:42:15;;;;;;;9.40;1.98;;;10.70;99.90;;;;;;5034573;28;20068;-64
2023/11/08 08:44:42;;;;;;;6.25;1.50;;;10.80;99.90;;;;;;5034876;28;20055;-65
2023/11/08 08:47:09;;;;;;;8.40;1.63;;;10.80;99.90;;;;;;5034581;28;20060;-65
2023/11/08 08:49:36;;;;;;;12.13;1.88;;;10.80;99.90;;;;;;5034596;28;20033;-65
2023/11/08 08:52:03;;;;;;;5.70;1.55;;;10.80;99.90;;;;;;5033627;28;20494;-65
2023/11/08 08:54:30;;;;;;;8.95;1.80;;;10.90;99.90;;;;;;5000373;28;20034;-65
2023/11/08 08:57:00;;;;;;;9.40;2.10;;;10.90;99.90;;;;;;5033947;28;20045;-65
2023/11/08 08:59:28;;;;;;;8.65;1.63;;;10.90;99.90;;;;;;5016093;28;20046;-65
2023/11/08 09:01:55;;;;;;;8.25;2.10;;;11.00;99.90;;;;;;5014003;28;20447;-65
2023/11/08 09:04:23;;;;;;;7.65;1.85;;;11.10;99.90;;;;;;5013814;28;20042;-64
2023/11/08 09:06:50;;;;;;;9.48;2.15;;;11.00;99.90;;;;;;4996111;28;20554;-65
2023/11/08 09:09:18;;;;;;;8.65;1.83;;;11.10;99.90;;;;;;5013660;28;20411;-64
2023/11/08 09:11:45;;;;;;;8.48;2.50;;;11.10;99.90;;;;;;5013792;28;20542;-64
2023/11/08 09:14:11;;;;;;;6.65;1.52;;;11.10;99.90;;;;;;5013694;28;20046;-65
2023/11/08 09:16:38;;;;;;;9.63;1.67;;;11.20;99.90;;;;;;5013829;28;20057;-65
2023/11/08 09:19:06;;;;;;;9.07;1.88;;;11.20;99.90;;;;;;5013643;28;20136;-65
2023/11/08 09:21:34;;;;;;;7.75;1.40;;;11.20;99.90;;;;;;5013812;28;20077;-65
2023/11/08 09:24:02;;;;;;;7.85;1.58;;;11.30;99.90;;;;;;5013181;28;20049;-65
2023/11/08 09:26:29;;;;;;;8.73;1.48;;;11.30;99.90;;;;;;5010377;28;20425;-64
2023/11/08 09:28:55;;;;;;;9.18;2.03;;;11.30;99.90;;;;;;5005694;28;20053;-64
2023/11/08 09:31:22;;;;;;;6.13;1.17;;;11.30;99.90;;;;;;5013508;28;20046;-64
2023/11/08 09:33:49;;;;;;;7.75;1.73;;;11.30;99.90;;;;;;5014212;28;20041;-64
2023/11/08 09:36:18;;;;;;;6.68;1.65;;;11.40;99.90;;;;;;5013427;28;20081;-64
2023/11/08 09:38:45;;;;;;;5.72;1.27;;;11.40;99.90;;;;;;5012642;28;20064;-64
2023/11/08 09:41:12;;;;;;;3.58;0.90;;;11.40;99.90;;;;;;5013795;28;20136;-64
2023/11/08 09:43:39;;;;;;;4.38;1.20;;;11.40;99.90;;;;;;5014807;28;20042;-64
2023/11/08 09:46:07;;;;;;;4.60;0.90;;;11.40;99.90;;;;;;5014793;28;20132;-65
2023/11/08 09:48:34;;;;;;;4.35;1.17;;;11.40;99.90;;;;;;5015297;28;20030;-65
2023/11/08 09:51:02;;;;;;;2.95;0.65;;;11.50;99.90;;;;;;5012975;28;20104;-65
2023/11/08 09:53:29;;;;;;;4.20;0.80;;;11.50;99.90;;;;;;5012704;28;20038;-65
2023/11/08 09:55:55;;;;;;;5.38;1.13;;;11.50;99.90;;;;;;5012780;28;20067;-64
2023/11/08 09:58:22;;;;;;;3.88;1.10;;;11.60;99.90;;;;;;5013007;28;20038;-64
2023/11/08 10:00:49;;;;;;;3.42;1.33;;;11.60;99.90;;;;;;5013260;28;20427;-64
2023/11/08 10:03:16;;;;;;;2.50;0.90;;;11.70;99.90;;;;;;5013131;28;20048;-64
2023/11/08 10:05:46;;;;;;;1.95;0.60;;;11.80;99.90;;;;;;4995733;28;20096;-65
2023/11/08 10:08:13;;;;;;;3.58;0.82;;;11.80;99.90;;;;;;5013826;28;20050;-64
2023/11/08 10:10:45;;;;;;;5.85;1.13;;;11.90;99.90;;;;;;5013274;28;20037;-64
2023/11/08 10:13:12;;;;;;;2.13;0.68;;;11.90;99.90;;;;;;5013814;28;20108;-64
2023/11/08 10:15:39;;;;;;;3.13;0.90;;;12.00;99.90;;;;;;5013707;28;20048;-65
2023/11/08 10:18:08;;;;;;;4.30;1.15;;;11.90;99.90;;;;;;5013598;28;20045;-64
2023/11/08 10:20:54;;;;;;;3.67;0.73;;;11.90;99.90;;;;;;5013359;28;20448;-65
2023/11/08 10:23:30;;;;;;;2.63;0.75;;;11.90;99.90;;;;;;5013683;28;20050;-64
2023/11/08 10:25:57;;;;;;;4.00;0.82;;;11.90;99.90;;;;;;5013830;28;20499;-65
2023/11/08 10:28:24;;;;;;;4.20;0.90;;;12.00;99.90;;;;;;5013235;28;20066;-64
2023/11/08 10:30:51;;;;;;;5.25;1.10;;;12.00;99.90;;;;;;5013200;28;20429;-65
2023/11/08 10:33:17;;;;;;;4.80;1.00;;;12.10;99.90;;;;;;5013315;28;20041;-65
2023/11/08 10:35:45;;;;;;;3.90;1.15;;;12.10;99.90;;;;;;5013522;28;20034;-63
2023/11/08 10:38:12;;;;;;;5.50;1.33;;;12.10;99.90;;;;;;5013167;28;20038;-64
2023/11/08 10:40:40;;;;;;;5.13;0.88;;;12.10;99.90;;;;;;5013083;28;20365;-63
2023/11/08 10:43:07;;;;;;;4.57;0.95;;;12.10;99.90;;;;;;5013424;28;20060;-63
2023/11/08 10:45:34;;;;;;;3.78;0.85;;;12.20;99.90;;;;;;5013415;28;20464;-64
2023/11/08 10:48:02;;;;;;;4.43;1.08;;;12.20;99.90;;;;;;5015392;28;20034;-64
2023/11/08 10:50:28;;;;;;;4.68;1.20;;;12.30;99.90;;;;;;5017155;28;20034;-64
2023/11/08 10:52:56;;;;;;;6.18;1.20;;;12.30;99.90;;;;;;5016989;28;20505;-64
2023/11/08 10:55:25;;;;;;;3.92;1.00;;;12.30;99.90;;;;;;5016706;28;20150;-63
2023/11/08 10:57:53;;;;;;;3.28;0.95;;;12.40;99.90;;;;;;5016918;28;20053;-64
2023/11/08 11:00:20;;;;;;;3.72;0.85;;;12.40;99.90;;;;;;5016966;28;20049;-64
2023/11/08 11:02:48;;;;;;;3.92;1.10;;;12.40;99.90;;;;;;5016918;28;20467;-64
2023/11/08 11:05:14;;;;;;;4.80;1.08;;;12.40;99.90;;;;;;4999385;28;20046;-64
2023/11/08 11:07:41;;;;;;;6.03;1.20;;;12.40;99.90;;;;;;5016257;28;20045;-64
2023/11/08 11:10:08;;;;;;;2.70;0.90;;;12.50;99.90;;;;;;5016545;28;20128;-64
2023/11/08 11:12:36;;;;;;;4.50;1.35;;;12.50;99.90;;;;;;5016782;28;20499;-66
2023/11/08 11:15:08;;;;;;;3.72;0.82;;;12.50;99.90;;;;;;5016792;28;20049;-64
2023/11/08 11:17:36;;;;;;;4.45;0.98;;;12.50;99.90;;;;;;5016596;28;20042;-65
2023/11/08 11:20:05;;;;;;;6.03;1.15;;;12.60;99.90;;;;;;5016721;28;20072;-64
2023/11/08 11:22:32;;;;;;;6.30;0.88;;;12.70;99.90;;;;;;5016429;28;20042;-63
2023/11/08 11:24:59;;;;;;;3.67;1.13;;;12.70;99.90;;;;;;5016801;28;20474;-64
2023/11/08 11:27:29;;;;;;;7.00;1.25;;;12.70;99.90;;;;;;5016382;28;20121;-64
2023/11/08 11:29:55;;;;;;;4.32;0.88;;;12.70;99.90;;;;;;5016171;28;20109;-64
2023/11/08 11:32:22;;;;;;;3.60;0.95;;;12.70;99.90;;;;;;5016273;28;20045;-64
2023/11/08 11:34:49;;;;;;;3.60;1.02;;;12.70;99.90;;;;;;5016332;28;20042;-64
2023/11/08 11:37:18;;;;;;;5.85;1.10;;;12.70;99.90;;;;;;5016250;28;20121;-64
2023/11/08 11:39:48;;;;;;;3.42;0.68;;;12.80;99.90;;;;;;5015916;28;20038;-65
2023/11/08 11:42:16;;;;;;;5.55;1.00;;;12.80;99.90;;;;;;5014819;28;20053;-63
2023/11/08 11:44:43;;;;;;;7.50;1.50;;;12.80;99.90;;;;;;5014885;28;20042;-64
2023/11/08 11:47:10;;;;;;;4.63;0.90;;;12.80;99.90;;;;;;5014773;28;20050;-64
2023/11/08 11:49:36;;;;;;;5.28;1.00;;;12.70;99.90;;;;;;5013917;28;20105;-65
2023/11/08 11:52:03;;;;;;;3.90;1.00;;;12.80;99.90;;;;;;5011096;28;20100;-64
2023/11/08 11:54:30;;;;;;;4.57;1.10;;;12.80;99.90;;;;;;5013121;28;20045;-63
2023/11/08 11:56:57;;;;;;;4.95;1.08;;;12.80;99.90;;;;;;5003328;28;20148;-65
2023/11/08 11:59:24;;;;;;;4.15;1.13;;;12.90;99.90;;;;;;5015270;28;20054;-65
2023/11/08 12:01:51;;;;;;;2.38;0.63;;;12.90;99.90;;;;;;5015427;28;20080;-65
2023/11/08 12:04:21;;;;;;;4.18;1.02;;;12.90;99.90;;;;;;5014083;28;20045;-65
2023/11/08 12:06:49;;;;;;;4.20;1.15;;;13.00;99.90;;;;;;5013900;28;20052;-65
2023/11/08 12:09:16;;;;;;;4.28;1.00;;;13.00;99.90;;;;;;5013126;28;20443;-65
2023/11/08 12:11:44;;;;;;;3.35;0.90;;;13.00;99.90;;;;;;5013703;28;20045;-65
2023/11/08 12:14:11;;;;;;;4.32;0.88;;;13.10;99.90;;;;;;5013646;28;20041;-65
2023/11/08 12:16:38;;;;;;;3.33;0.80;;;13.10;99.90;;;;;;5028179;28;20467;-65
2023/11/08 12:19:05;;;;;;;5.15;0.98;;;13.10;99.90;;;;;;5013673;28;20042;-64
2023/11/08 12:21:33;;;;;;;4.15;0.85;;;13.10;99.90;;;;;;5013502;28;20686;-64
2023/11/08 12:23:59;;;;;;;3.42;0.60;;;13.10;99.90;;;;;;5013671;28;20049;-64
2023/11/08 12:26:26;;;;;;;5.18;1.30;;;13.10;99.90;;;;;;5013628;28;20092;-64
2023/11/08 12:28:53;;;;;;;5.72;0.80;;;13.10;99.90;;;;;;5013673;28;20115;-64
2023/11/08 12:31:20;;;;;;;2.88;0.60;;;13.20;99.90;;;;;;5013423;28;20045;-64
2023/11/08 12:33:48;;;;;;;4.10;0.70;;;13.20;99.90;;;;;;5012987;28;20038;-64
2023/11/08 12:36:15;;;;;;;3.75;1.23;;;13.20;99.90;;;;;;5014219;28;20455;-64
2023/11/08 12:38:43;;;;;;;2.78;0.60;;;13.20;99.90;;;;;;5013708;28;20092;-63
2023/11/08 12:41:10;;;;;;;4.40;1.00;;;13.30;99.90;;;;;;4971872;28;1206761;-65
2023/11/08 12:43:37;;;;;;;3.45;0.70;;;13.30;99.90;;;;;;5014109;28;20042;-65
2023/11/08 12:46:23;;;;;;;3.88;0.90;;;13.20;99.90;;;;;;5014945;28;20041;-65
2023/11/08 12:49:07;;;;;;;2.90;0.60;;;13.30;99.90;;;;;;5014277;28;20033;-65